Time;durP1;ratioP1;P1;durP2;ratioP2;P2;SDS_P1;SDS_P2;PMS_P1;PMS_P2;Temp;Humidity;BMP_temperature;BMP_pressure;BME280_temperature;BME280_humidity;BME280_pressure;Samples;Min_cycle;Max_cycle;Signal;HPM_P1;HPM_P2
2023/07/25 00:00:30;;;;;;;;;;;21.80;70.30;;;;;;4995627;28;19936;-75
2023/07/25 00:02:57;;;;;;;;;;;21.80;70.40;;;;;;5011293;28;19937;-75
2023/07/25 00:05:23;;;;;;;;;;;21.80;70.50;;;;;;5009058;28;19929;-74
2023/07/25 00:07:50;;;;;;;;;;;21.70;70.50;;;;;;5006296;28;20268;-75
2023/07/25 00:10:18;;;;;;;;;;;21.70;70.60;;;;;;5007255;28;20446;-75
2023/07/25 00:12:46;;;;;;;;;;;21.70;70.70;;;;;;5003964;28;20578;-74
2023/07/25 00:15:12;;;;;;;;;;;21.70;70.80;;;;;;5008261;28;19930;-75
2023/07/25 00:17:39;;;;;;;;;;;21.70;70.90;;;;;;5006763;28;20346;-75
2023/07/25 00:20:06;;;;;;;;;;;21.70;71.00;;;;;;5010726;28;19933;-74
2023/07/25 00:22:32;;;;;;;;;;;21.60;71.00;;;;;;5010238;28;19926;-75
2023/07/25 00:24:59;;;;;;;;;;;21.60;71.10;;;;;;5008122;28;19940;-74
2023/07/25 00:27:25;;;;;;;;;;;21.60;71.10;;;;;;5007992;28;19929;-74
2023/07/25 00:29:53;;;;;;;;;;;21.60;71.20;;;;;;5007990;28;19933;-75
2023/07/25 00:32:20;;;;;;;;;;;21.50;71.20;;;;;;4987403;28;19930;-75
2023/07/25 00:34:46;;;;;;;;;;;21.50;71.30;;;;;;4986361;28;20021;-75
2023/07/25 00:37:13;;;;;;;;;;;21.50;71.40;;;;;;4986022;28;19936;-75
2023/07/25 00:39:39;;;;;;;;;;;21.50;71.40;;;;;;4986138;28;19941;-75
2023/07/25 00:42:06;;;;;;;;;;;21.50;71.50;;;;;;4988404;28;19933;-75
2023/07/25 00:44:33;;;;;;;;;;;21.40;71.40;;;;;;4983436;28;19984;-75
2023/07/25 00:47:01;;;;;;;;;;;21.40;71.50;;;;;;4999414;28;19937;-75
2023/07/25 00:49:27;;;;;;;;;;;21.40;71.50;;;;;;5004758;28;20392;-75
2023/07/25 00:51:54;;;;;;;;;;;21.30;71.50;;;;;;5001980;28;19976;-75
2023/07/25 00:54:20;;;;;;;;;;;21.30;71.50;;;;;;5008987;28;20012;-72
2023/07/25 00:56:47;;;;;;;;;;;21.30;71.60;;;;;;5004240;28;19981;-75
2023/07/25 00:59:13;;;;;;;;;;;21.30;71.60;;;;;;5001542;28;19937;-74
2023/07/25 01:01:40;;;;;;;;;;;21.30;71.60;;;;;;4997340;28;19970;-75
2023/07/25 01:04:08;;;;;;;;;;;21.20;71.60;;;;;;5002199;28;19933;-75
2023/07/25 01:06:37;;;;;;;;;;;21.20;71.60;;;;;;5001289;28;19936;-75
2023/07/25 01:09:03;;;;;;;;;;;21.20;71.60;;;;;;5000942;28;19938;-75
2023/07/25 01:11:30;;;;;;;;;;;21.20;71.70;;;;;;5002592;28;19929;-75
2023/07/25 01:13:56;;;;;;;;;;;21.10;71.70;;;;;;5004715;28;20370;-74
2023/07/25 01:16:24;;;;;;;;;;;21.20;71.70;;;;;;4993702;28;19937;-75
2023/07/25 01:18:51;;;;;;;;;;;21.10;71.60;;;;;;4981024;28;19929;-75
2023/07/25 01:21:20;;;;;;;;;;;21.10;71.60;;;;;;4983296;28;19930;-75
2023/07/25 01:23:46;;;;;;;;;;;21.10;71.70;;;;;;4982772;28;19937;-75
2023/07/25 01:26:16;;;;;;;;;;;21.00;71.60;;;;;;4982542;28;19976;-75
2023/07/25 01:28:43;;;;;;;;;;;21.00;71.60;;;;;;4979800;28;19934;-75
2023/07/25 01:31:09;;;;;;;;;;;21.00;71.60;;;;;;4991620;28;19929;-75
2023/07/25 01:33:36;;;;;;;;;;;21.00;71.70;;;;;;4999227;28;19933;-75
2023/07/25 01:36:03;;;;;;;;;;;20.90;71.70;;;;;;5007488;28;20028;-75
2023/07/25 01:38:29;;;;;;;;;;;20.90;71.70;;;;;;5001553;28;20413;-74
2023/07/25 01:40:56;;;;;;;;;;;20.90;71.80;;;;;;5004463;28;20418;-75
2023/07/25 01:43:24;;;;;;;;;;;20.90;71.80;;;;;;5005492;28;19929;-75
2023/07/25 01:45:50;;;;;;;;;;;20.80;71.80;;;;;;5006320;28;19973;-75
2023/07/25 01:48:17;;;;;;;;;;;20.80;71.80;;;;;;5007077;28;19979;-75
2023/07/25 01:50:43;;;;;;;;;;;20.80;71.80;;;;;;5007832;28;20322;-75
2023/07/25 01:53:10;;;;;;;;;;;20.80;71.80;;;;;;4997784;28;19936;-75
2023/07/25 01:55:37;;;;;;;;;;;20.80;71.80;;;;;;5008480;28;20553;-75
2023/07/25 01:58:03;;;;;;;;;;;20.80;71.90;;;;;;5008218;28;19937;-75
2023/07/25 02:00:31;;;;;;;;;;;20.80;72.00;;;;;;5004276;28;21947;-75
2023/07/25 02:02:58;;;;;;;;;;;20.80;72.00;;;;;;4983270;28;19930;-74
2023/07/25 02:05:24;;;;;;;;;;;20.70;72.00;;;;;;4978624;28;19937;-73
2023/07/25 02:07:51;;;;;;;;;;;20.70;72.10;;;;;;4982871;28;19930;-73
2023/07/25 02:10:17;;;;;;;;;;;20.80;72.20;;;;;;4982329;28;20399;-73
2023/07/25 02:12:44;;;;;;;;;;;20.70;72.30;;;;;;4983366;28;19931;-74
2023/07/25 02:15:10;;;;;;;;;;;20.70;72.40;;;;;;4986030;28;19936;-73
2023/07/25 02:17:38;;;;;;;;;;;20.70;72.60;;;;;;5004110;28;20339;-74
2023/07/25 02:20:06;;;;;;;;;;;20.70;72.80;;;;;;5006675;28;19933;-74
2023/07/25 02:22:32;;;;;;;;;;;20.60;73.00;;;;;;5002031;28;19933;-73
2023/07/25 02:24:59;;;;;;;;;;;20.60;73.10;;;;;;5002136;28;20023;-73
2023/07/25 02:27:26;;;;;;;;;;;20.60;73.30;;;;;;4999970;28;19925;-73
2023/07/25 02:29:52;;;;;;;;;;;20.60;73.50;;;;;;5002274;28;19937;-73
2023/07/25 02:32:19;;;;;;;;;;;20.60;73.60;;;;;;4985942;28;19937;-74
2023/07/25 02:34:47;;;;;;;;;;;20.60;73.80;;;;;;4985252;28;19944;-70
2023/07/25 02:37:13;;;;;;;;;;;20.50;73.80;;;;;;4996904;28;20394;-73
2023/07/25 02:39:40;;;;;;;;;;;20.60;73.90;;;;;;4993587;28;19929;-73
2023/07/25 02:42:07;;;;;;;;;;;20.50;74.00;;;;;;4988949;28;19929;-73
2023/07/25 02:44:33;;;;;;;;;;;20.50;74.10;;;;;;4986054;28;19937;-74
2023/07/25 02:47:00;;;;;;;;;;;20.50;74.20;;;;;;4987472;28;20566;-74
2023/07/25 02:49:26;;;;;;;;;;;20.50;74.20;;;;;;4991705;28;19936;-72
2023/07/25 02:51:54;;;;;;;;;;;20.40;74.30;;;;;;4982661;28;19930;-73
2023/07/25 02:54:21;;;;;;;;;;;20.50;74.50;;;;;;4982625;28;19961;-73
2023/07/25 02:56:47;;;;;;;;;;;20.40;74.50;;;;;;4990752;28;19978;-73
2023/07/25 02:59:14;;;;;;;;;;;20.40;74.50;;;;;;4997759;28;20327;-74
2023/07/25 03:01:40;;;;;;;;;;;20.40;74.60;;;;;;5003262;28;19929;-73
2023/07/25 03:04:07;;;;;;;;;;;20.40;74.70;;;;;;5006436;28;19940;-74
2023/07/25 03:06:33;;;;;;;;;;;20.40;74.80;;;;;;5001044;28;19929;-73
2023/07/25 03:09:01;;;;;;;;;;;20.40;74.90;;;;;;4999189;28;19963;-73
2023/07/25 03:11:28;;;;;;;;;;;20.40;75.00;;;;;;4998632;28;19929;-73
2023/07/25 03:13:55;;;;;;;;;;;20.30;75.00;;;;;;5003993;28;19999;-73
2023/07/25 03:16:21;;;;;;;;;;;20.30;75.10;;;;;;5007856;28;19929;-73
2023/07/25 03:18:48;;;;;;;;;;;20.30;75.20;;;;;;5000977;28;19936;-73
2023/07/25 03:21:14;;;;;;;;;;;20.20;75.30;;;;;;5002963;28;19984;-74
2023/07/25 03:23:41;;;;;;;;;;;20.20;75.40;;;;;;5002735;28;19933;-73
2023/07/25 03:26:09;;;;;;;;;;;20.20;75.50;;;;;;4998597;28;20313;-73
2023/07/25 03:28:35;;;;;;;;;;;20.20;75.50;;;;;;4999642;28;20380;-73
2023/07/25 03:31:02;;;;;;;;;;;20.20;75.60;;;;;;5002810;28;19940;-73
2023/07/25 03:33:28;;;;;;;;;;;20.20;75.70;;;;;;4994638;28;19930;-73
2023/07/25 03:35:55;;;;;;;;;;;20.20;75.70;;;;;;4984318;28;19941;-73
2023/07/25 03:38:22;;;;;;;;;;;20.10;75.80;;;;;;4993444;28;20028;-73
2023/07/25 03:40:48;;;;;;;;;;;20.20;75.90;;;;;;4988566;28;19936;-73
2023/07/25 03:43:16;;;;;;;;;;;20.10;76.00;;;;;;4986002;28;19933;-73
2023/07/25 03:45:43;;;;;;;;;;;20.10;76.00;;;;;;4988854;28;19941;-73
2023/07/25 03:48:09;;;;;;;;;;;20.10;76.10;;;;;;5005971;28;20403;-73
2023/07/25 03:50:36;;;;;;;;;;;20.10;76.10;;;;;;5004205;28;20474;-73
2023/07/25 03:53:03;;;;;;;;;;;20.10;76.20;;;;;;5001436;28;20276;-74
2023/07/25 03:55:29;;;;;;;;;;;20.10;76.30;;;;;;5004235;28;19929;-73
2023/07/25 03:57:56;;;;;;;;;;;20.00;76.30;;;;;;5002205;28;19941;-72
2023/07/25 04:00:24;;;;;;;;;;;20.00;76.30;;;;;;4996434;28;19933;-74
2023/07/25 04:02:50;;;;;;;;;;;20.00;76.40;;;;;;5003729;28;19933;-72
2023/07/25 04:05:17;;;;;;;;;;;20.00;77.10;;;;;;5007539;28;20629;-73
2023/07/25 04:07:43;;;;;;;;;;;20.00;76.50;;;;;;5004184;28;19959;-73
2023/07/25 04:10:10;;;;;;;;;;;20.00;76.60;;;;;;5004575;28;19937;-73
2023/07/25 04:12:37;;;;;;;;;;;19.90;76.60;;;;;;5005431;28;19940;-73
2023/07/25 04:15:04;;;;;;;;;;;19.90;76.60;;;;;;5007405;28;20378;-73
2023/07/25 04:17:32;;;;;;;;;;;19.90;76.70;;;;;;5005572;28;19934;-73
2023/07/25 04:19:58;;;;;;;;;;;19.90;76.70;;;;;;5005294;28;19940;-73
2023/07/25 04:22:25;;;;;;;;;;;19.90;76.80;;;;;;5011296;28;19933;-74
2023/07/25 04:24:51;;;;;;;;;;;19.90;76.80;;;;;;5007899;28;19929;-74
2023/07/25 04:27:18;;;;;;;;;;;19.90;76.90;;;;;;5005016;28;19936;-73
2023/07/25 04:29:44;;;;;;;;;;;19.90;76.90;;;;;;5006549;28;20493;-73
2023/07/25 04:32:11;;;;;;;;;;;19.80;76.90;;;;;;5003562;28;19980;-73
2023/07/25 04:34:39;;;;;;;;;;;19.80;76.90;;;;;;5001481;28;19933;-73
2023/07/25 04:37:06;;;;;;;;;;;19.80;77.00;;;;;;5004999;28;19934;-73
2023/07/25 04:39:32;;;;;;;;;;;19.80;77.00;;;;;;5004542;28;19934;-73
2023/07/25 04:41:59;;;;;;;;;;;19.80;77.10;;;;;;5004619;28;19929;-74
2023/07/25 04:44:25;;;;;;;;;;;19.80;77.20;;;;;;5004384;28;19929;-73
2023/07/25 04:46:52;;;;;;;;;;;19.80;77.30;;;;;;5001278;28;19936;-74
2023/07/25 04:49:18;;;;;;;;;;;19.70;77.20;;;;;;5003235;28;19933;-73
2023/07/25 04:51:46;;;;;;;;;;;19.70;77.30;;;;;;5002458;28;19936;-73
2023/07/25 04:54:13;;;;;;;;;;;19.70;77.40;;;;;;5006867;28;19933;-72
2023/07/25 04:56:40;;;;;;;;;;;19.70;77.40;;;;;;5003554;28;19925;-73
2023/07/25 04:59:07;;;;;;;;;;;19.70;77.40;;;;;;5001721;28;19936;-72
2023/07/25 05:01:34;;;;;;;;;;;19.70;77.50;;;;;;5001057;28;19934;-73
2023/07/25 05:04:00;;;;;;;;;;;19.70;77.50;;;;;;4999380;28;19933;-73
2023/07/25 05:06:27;;;;;;;;;;;19.70;77.50;;;;;;5000432;28;19930;-73
2023/07/25 05:08:55;;;;;;;;;;;19.70;77.60;;;;;;5003750;28;20005;-74
2023/07/25 05:11:21;;;;;;;;;;;19.60;77.60;;;;;;5001280;28;19937;-73
2023/07/25 05:13:48;;;;;;;;;;;19.60;77.60;;;;;;4997840;28;19937;-74
2023/07/25 05:16:14;;;;;;;;;;;19.60;77.60;;;;;;5002611;28;19937;-75
2023/07/25 05:18:41;;;;;;;;;;;19.50;80.80;;;;;;5010644;28;19976;-74
2023/07/25 05:21:07;;;;;;;;;;;19.40;80.90;;;;;;5008180;28;19929;-75
2023/07/25 05:23:34;;;;;;;;;;;19.40;80.90;;;;;;5005504;28;19929;-74
2023/07/25 05:26:02;;;;;;;;;;;19.40;80.80;;;;;;5004660;28;19949;-75
2023/07/25 05:28:28;;;;;;;;;;;19.30;80.60;;;;;;5006745;28;20012;-75
2023/07/25 05:30:55;;;;;;;;;;;19.40;80.60;;;;;;4995672;28;20489;-76
2023/07/25 05:33:21;;;;;;;;;;;19.30;80.40;;;;;;4986930;28;19929;-75
2023/07/25 05:35:48;;;;;;;;;;;19.30;80.30;;;;;;4986821;28;20403;-75
2023/07/25 05:38:14;;;;;;;;;;;19.40;80.20;;;;;;4985744;28;20383;-75
2023/07/25 05:40:41;;;;;;;;;;;19.40;80.10;;;;;;4981744;28;19989;-75
2023/07/25 05:43:11;;;;;;;;;;;19.40;80.10;;;;;;4984334;28;19937;-75
2023/07/25 05:45:37;;;;;;;;;;;19.40;80.00;;;;;;4990346;28;19935;-75
2023/07/25 05:48:04;;;;;;;;;;;19.40;80.00;;;;;;5005814;28;19933;-76
2023/07/25 05:50:31;;;;;;;;;;;19.40;80.00;;;;;;5008552;28;19979;-76
2023/07/25 05:52:57;;;;;;;;;;;19.40;79.90;;;;;;5008349;28;19940;-75
2023/07/25 05:55:24;;;;;;;;;;;19.40;80.00;;;;;;5005833;28;19934;-75
2023/07/25 05:57:50;;;;;;;;;;;19.40;80.00;;;;;;5003281;28;20072;-75
2023/07/25 06:00:19;;;;;;;;;;;19.30;80.00;;;;;;5003029;28;20578;-76
2023/07/25 06:02:45;;;;;;;;;;;19.30;80.00;;;;;;4984998;28;20407;-75
2023/07/25 06:05:12;;;;;;;;;;;19.30;80.00;;;;;;4986200;28;20343;-75
2023/07/25 06:07:38;;;;;;;;;;;19.30;80.10;;;;;;4988093;28;20452;-76
2023/07/25 06:10:06;;;;;;;;;;;19.30;80.10;;;;;;4985175;28;19942;-75
2023/07/25 06:12:32;;;;;;;;;;;19.30;80.20;;;;;;4983984;28;19937;-75
2023/07/25 06:14:59;;;;;;;;;;;19.30;80.20;;;;;;4986901;28;19929;-75
2023/07/25 06:17:27;;;;;;;;;;;19.30;80.20;;;;;;4986694;28;19934;-75
2023/07/25 06:19:53;;;;;;;;;;;19.30;80.20;;;;;;4998183;28;19960;-75
2023/07/25 06:22:20;;;;;;;;;;;19.30;80.20;;;;;;4992305;28;19984;-76
2023/07/25 06:24:47;;;;;;;;;;;19.20;80.20;;;;;;4992980;28;19926;-75
2023/07/25 06:27:13;;;;;;;;;;;19.20;80.20;;;;;;4995057;28;19925;-72
2023/07/25 06:29:40;;;;;;;;;;;19.20;80.20;;;;;;4988688;28;19930;-72
2023/07/25 06:32:07;;;;;;;;;;;19.20;80.30;;;;;;5008534;28;19929;-74
2023/07/25 06:34:35;;;;;;;;;;;19.20;80.30;;;;;;5008899;28;19965;-74
2023/07/25 06:37:01;;;;;;;;;;;19.20;80.60;;;;;;5016602;28;19936;-74
2023/07/25 06:39:28;;;;;;;;;;;19.20;80.30;;;;;;5010804;28;20689;-73
2023/07/25 06:41:54;;;;;;;;;;;19.30;80.40;;;;;;5011805;28;19937;-74
2023/07/25 06:44:21;;;;;;;;;;;19.20;80.30;;;;;;5011287;28;19940;-74
2023/07/25 06:46:47;;;;;;;;;;;19.20;80.30;;;;;;5003915;28;19929;-74
2023/07/25 06:49:14;;;;;;;;;;;19.30;80.40;;;;;;5007413;28;20406;-74
2023/07/25 06:51:42;;;;;;;;;;;19.30;80.50;;;;;;5003404;28;19941;-74
2023/07/25 06:54:08;;;;;;;;;;;19.30;80.50;;;;;;5009743;28;19930;-74
2023/07/25 06:56:35;;;;;;;;;;;19.20;80.50;;;;;;5001386;28;19930;-75
2023/07/25 06:59:01;;;;;;;;;;;19.30;80.50;;;;;;5010128;28;19940;-74
2023/07/25 07:01:28;;;;;;;;;;;19.30;80.60;;;;;;4999174;28;19930;-74
2023/07/25 07:03:55;;;;;;;;;;;19.20;80.70;;;;;;5006935;28;19930;-74
2023/07/25 07:06:21;;;;;;;;;;;19.30;80.80;;;;;;5010547;28;20346;-75
2023/07/25 07:08:49;;;;;;;;;;;19.30;80.80;;;;;;5007111;28;19929;-74
2023/07/25 07:11:16;;;;;;;;;;;19.30;80.80;;;;;;5002606;28;19930;-74
2023/07/25 07:13:42;;;;;;;;;;;19.30;80.70;;;;;;5004000;28;19995;-74
2023/07/25 07:16:09;;;;;;;;;;;19.30;80.70;;;;;;5010919;28;19988;-75
2023/07/25 07:18:36;;;;;;;;;;;19.30;80.70;;;;;;5014105;28;19964;-74
2023/07/25 07:21:02;;;;;;;;;;;19.30;80.70;;;;;;5005542;28;20288;-74
2023/07/25 07:23:29;;;;;;;;;;;19.30;80.70;;;;;;5012211;28;19929;-74
2023/07/25 07:25:57;;;;;;;;;;;19.30;80.80;;;;;;5013356;28;19956;-74
2023/07/25 07:28:23;;;;;;;;;;;19.30;80.90;;;;;;5010445;28;19930;-74
2023/07/25 07:30:50;;;;;;;;;;;19.30;80.90;;;;;;5001943;28;20433;-73
2023/07/25 07:33:17;;;;;;;;;;;19.30;80.80;;;;;;5004141;28;19976;-73
2023/07/25 07:35:43;;;;;;;;;;;19.30;80.90;;;;;;5006649;28;20311;-73
2023/07/25 07:38:10;;;;;;;;;;;19.30;80.90;;;;;;5011905;28;20020;-73
2023/07/25 07:40:37;;;;;;;;;;;19.30;81.00;;;;;;5007481;28;19933;-74
2023/07/25 07:43:04;;;;;;;;;;;19.30;81.10;;;;;;5004176;28;20530;-73
2023/07/25 07:45:31;;;;;;;;;;;19.30;81.20;;;;;;5008361;28;19933;-73
2023/07/25 07:47:58;;;;;;;;;;;19.30;81.30;;;;;;5011444;28;19929;-73
2023/07/25 07:50:28;;;;;;;;;;;19.40;81.30;;;;;;5012388;28;19933;-73
2023/07/25 07:52:54;;;;;;;;;;;19.40;81.40;;;;;;5002213;28;20638;-74
2023/07/25 07:55:21;;;;;;;;;;;19.30;81.40;;;;;;5008129;28;19941;-72
2023/07/25 07:57:48;;;;;;;;;;;19.40;81.50;;;;;;5010475;28;20474;-75
2023/07/25 08:00:16;;;;;;;;;;;19.40;81.50;;;;;;5007248;28;20415;-74
2023/07/25 08:02:43;;;;;;;;;;;19.40;81.50;;;;;;5007642;28;19929;-74
2023/07/25 08:05:11;;;;;;;;;;;19.40;81.50;;;;;;5003546;28;19968;-74
2023/07/25 08:07:37;;;;;;;;;;;19.50;81.70;;;;;;5004102;28;19937;-74
2023/07/25 08:10:04;;;;;;;;;;;19.50;81.70;;;;;;5003067;28;19926;-74
2023/07/25 08:12:31;;;;;;;;;;;19.50;81.80;;;;;;5008159;28;19940;-76
2023/07/25 08:14:57;;;;;;;;;;;19.50;81.80;;;;;;5006241;28;19936;-75
2023/07/25 08:17:25;;;;;;;;;;;19.50;81.80;;;;;;5003892;28;20505;-74
2023/07/25 08:19:52;;;;;;;;;;;19.50;81.60;;;;;;5006129;28;19929;-74
2023/07/25 08:22:18;;;;;;;;;;;19.50;81.70;;;;;;5005235;28;19933;-74
2023/07/25 08:24:45;;;;;;;;;;;19.60;81.70;;;;;;5002570;28;20281;-75
2023/07/25 08:27:11;;;;;;;;;;;19.60;81.70;;;;;;5004283;28;19935;-75
2023/07/25 08:29:41;;;;;;;;;;;19.60;81.60;;;;;;5000166;28;19929;-74
2023/07/25 08:32:08;;;;;;;;;;;19.70;81.60;;;;;;5003437;28;19929;-74
2023/07/25 08:34:36;;;;;;;;;;;19.70;81.60;;;;;;5003811;28;19969;-76
2023/07/25 08:37:03;;;;;;;;;;;19.70;81.60;;;;;;5002727;28;20449;-75
2023/07/25 08:39:30;;;;;;;;;;;19.80;81.70;;;;;;5003007;28;19952;-74
2023/07/25 08:41:58;;;;;;;;;;;19.80;81.50;;;;;;5002315;28;19934;-73
2023/07/25 08:44:26;;;;;;;;;;;19.80;81.40;;;;;;5002213;28;19929;-72
2023/07/25 08:46:54;;;;;;;;;;;19.80;81.40;;;;;;5003063;28;20689;-73
2023/07/25 08:49:21;;;;;;;;;;;19.80;81.40;;;;;;5004585;28;19937;-74
2023/07/25 08:51:51;;;;;;;;;;;19.80;81.40;;;;;;5000920;28;19929;-74
2023/07/25 08:54:31;;;;;;;;;;;19.80;81.60;;;;;;5004985;28;20538;-73
2023/07/25 08:56:58;;;;;;;;;;;19.90;81.50;;;;;;5003027;28;19934;-74
2023/07/25 08:59:25;;;;;;;;;;;19.90;81.50;;;;;;5001775;28;19930;-75
2023/07/25 09:01:51;;;;;;;;;;;19.90;81.60;;;;;;5003224;28;19940;-73
2023/07/25 09:04:19;;;;;;;;;;;19.90;81.40;;;;;;5004746;28;20407;-76
2023/07/25 09:06:45;;;;;;;;;;;20.00;81.20;;;;;;5003678;28;19936;-79
2023/07/25 09:09:13;;;;;;;;;;;20.00;81.10;;;;;;5006783;28;19934;-78
2023/07/25 09:11:40;;;;;;;;;;;20.00;81.00;;;;;;5004678;28;19936;-75
2023/07/25 09:14:07;;;;;;;;;;;20.00;80.90;;;;;;5000946;28;19937;-76
2023/07/25 09:16:34;;;;;;;;;;;20.10;80.90;;;;;;5003654;28;19929;-76
2023/07/25 09:19:00;;;;;;;;;;;20.10;80.80;;;;;;5003881;28;19972;-76
2023/07/25 09:21:28;;;;;;;;;;;20.10;80.60;;;;;;5002684;28;19968;-77
2023/07/25 09:23:55;;;;;;;;;;;20.20;80.50;;;;;;5004230;28;19929;-79
2023/07/25 09:26:24;;;;;;;;;;;20.20;80.30;;;;;;5002040;28;19930;-77
2023/07/25 09:28:51;;;;;;;;;;;20.30;80.20;;;;;;5003476;28;19936;-77
2023/07/25 09:31:18;;;;;;;;;;;20.30;79.90;;;;;;4988035;28;19926;-79
2023/07/25 09:33:47;;;;;;;;;;;20.30;79.90;;;;;;4988202;28;19930;-76
2023/07/25 09:36:13;;;;;;;;;;;20.40;79.80;;;;;;4983764;28;19953;-75
2023/07/25 09:38:47;;;;;;;;;;;20.40;79.70;;;;;;4988044;28;19930;-77
2023/07/25 09:41:13;;;;;;;;;;;20.40;79.50;;;;;;4984343;28;19926;-75
2023/07/25 09:43:41;;;;;;;;;;;20.40;79.40;;;;;;4983119;28;19937;-79
2023/07/25 09:46:08;;;;;;;;;;;20.40;79.30;;;;;;4993584;28;19929;-77
2023/07/25 09:48:34;;;;;;;;;;;20.50;79.10;;;;;;5003167;28;19929;-81
2023/07/25 09:51:02;;;;;;;;;;;20.50;78.90;;;;;;5005188;28;19933;-80
2023/07/25 09:53:30;;;;;;;;;;;20.50;78.80;;;;;;5003577;28;19925;-78
2023/07/25 09:55:57;;;;;;;;;;;20.50;78.70;;;;;;5005666;28;20024;-77
2023/07/25 09:58:23;;;;;;;;;;;20.60;79.50;;;;;;5003719;28;19965;-81
2023/07/25 10:00:51;;;;;;;;;;;20.60;78.80;;;;;;5013088;28;20288;-76
2023/07/25 10:03:18;;;;;;;;;;;20.60;78.80;;;;;;5012917;28;19936;-80
2023/07/25 10:05:45;;;;;;;;;;;20.60;78.70;;;;;;5002075;28;19944;-80
2023/07/25 10:08:15;;;;;;;;;;;20.60;79.40;;;;;;5002784;28;21555;-79
2023/07/25 10:10:42;;;;;;;;;;;20.60;78.60;;;;;;5000420;28;19934;-80
2023/07/25 10:13:09;;;;;;;;;;;20.60;78.70;;;;;;5001722;28;20304;-77
2023/07/25 10:15:36;;;;;;;;;;;20.60;78.80;;;;;;4995861;28;20710;-78
2023/07/25 10:18:04;;;;;;;;;;;20.60;78.90;;;;;;4984094;28;19938;-79
2023/07/25 10:20:31;;;;;;;;;;;20.60;79.10;;;;;;4986514;28;20289;-78
2023/07/25 10:23:06;;;;;;;;;;;20.60;79.50;;;;;;4982246;28;19933;-80
2023/07/25 10:25:34;;;;;;;;;;;20.60;79.40;;;;;;4985608;28;20607;-78
2023/07/25 10:28:00;;;;;;;;;;;20.50;79.30;;;;;;4984924;28;19928;-80
2023/07/25 10:30:27;;;;;;;;;;;20.60;79.40;;;;;;4982661;28;19930;-78
2023/07/25 10:32:56;;;;;;;;;;;20.60;79.50;;;;;;4999306;28;19930;-80
2023/07/25 10:35:46;;;;;;;;;;;20.50;79.40;;;;;;5003828;28;19929;-78
2023/07/25 10:38:14;;;;;;;;;;;20.50;79.50;;;;;;5005202;28;19929;-80
2023/07/25 10:40:54;;;;;;;;;;;20.50;79.60;;;;;;5011452;28;19930;-79
2023/07/25 10:43:20;;;;;;;;;;;20.50;79.50;;;;;;5006624;28;19933;-81
2023/07/25 10:45:48;;;;;;;;;;;20.50;79.40;;;;;;5013288;28;19940;-79
2023/07/25 10:48:28;;;;;;;;;;;20.50;79.00;;;;;;5005323;28;20032;-79
2023/07/25 10:50:56;;;;;;;;;;;20.50;78.80;;;;;;5007672;28;19937;-80
2023/07/25 10:53:24;;;;;;;;;;;20.40;78.60;;;;;;5008852;28;20047;-78
2023/07/25 10:56:09;;;;;;;;;;;20.50;78.50;;;;;;5004980;28;19936;-76
2023/07/25 10:58:37;;;;;;;;;;;20.40;78.80;;;;;;5004181;28;19926;-77
2023/07/25 11:01:04;;;;;;;;;;;20.40;79.50;;;;;;5001225;28;20007;-77
2023/07/25 11:03:31;;;;;;;;;;;20.40;79.40;;;;;;5002022;28;19936;-76
2023/07/25 11:06:13;;;;;;;;;;;20.40;79.60;;;;;;5004577;28;19929;-76
2023/07/25 11:08:41;;;;;;;;;;;20.40;79.90;;;;;;5000088;28;20315;-79
2023/07/25 11:11:08;;;;;;;;;;;20.40;79.70;;;;;;5003751;28;19925;-80
2023/07/25 11:13:36;;;;;;;;;;;20.40;79.10;;;;;;5004355;28;20397;-77
2023/07/25 11:16:03;;;;;;;;;;;20.40;78.80;;;;;;5005838;28;19952;-77
2023/07/25 11:18:33;;;;;;;;;;;20.40;78.70;;;;;;5011648;28;19933;-78
2023/07/25 11:21:00;;;;;;;;;;;20.40;78.80;;;;;;5010456;28;20016;-77
2023/07/25 11:23:26;;;;;;;;;;;20.40;78.70;;;;;;5011091;28;20560;-77
2023/07/25 11:25:54;;;;;;;;;;;20.40;78.60;;;;;;5009359;28;19964;-77
2023/07/25 11:28:21;;;;;;;;;;;20.40;78.70;;;;;;5008429;28;20394;-79
2023/07/25 11:30:48;;;;;;;;;;;20.30;78.80;;;;;;5007728;28;19937;-77
2023/07/25 11:33:14;;;;;;;;;;;20.30;79.00;;;;;;5009655;28;20016;-77
2023/07/25 11:35:41;;;;;;;;;;;20.30;78.80;;;;;;5009530;28;19929;-77
2023/07/25 11:38:09;;;;;;;;;;;20.30;78.60;;;;;;5012303;28;19936;-78
2023/07/25 11:40:36;;;;;;;;;;;20.30;78.60;;;;;;5011006;28;19940;-76
2023/07/25 11:43:10;;;;;;;;;;;20.30;79.40;;;;;;5011816;28;19937;-77
2023/07/25 11:45:37;;;;;;;;;;;20.30;78.60;;;;;;5008744;28;19940;-76
2023/07/25 11:48:05;;;;;;;;;;;20.30;78.60;;;;;;5010335;28;20021;-78
2023/07/25 11:50:32;;;;;;;;;;;20.20;78.60;;;;;;5008959;28;20004;-76
2023/07/25 11:52:59;;;;;;;;;;;20.20;78.60;;;;;;5005802;28;20319;-76
2023/07/25 11:55:26;;;;;;;;;;;20.20;78.70;;;;;;5009685;28;19929;-76
2023/07/25 11:57:53;;;;;;;;;;;20.10;78.70;;;;;;5008288;28;19940;-78
2023/07/25 12:00:22;;;;;;;;;;;20.20;78.80;;;;;;5004392;28;19936;-79
2023/07/25 12:02:48;;;;;;;;;;;20.10;78.80;;;;;;4995206;28;19936;-80
2023/07/25 12:05:25;;;;;;;;;;;20.10;78.80;;;;;;4992591;28;19930;-78
2023/07/25 12:07:53;;;;;;;;;;;20.20;78.90;;;;;;4986744;28;19930;-80
2023/07/25 12:10:25;;;;;;;;;;;20.10;78.90;;;;;;4993151;28;19972;-79
2023/07/25 12:12:52;;;;;;;;;;;20.10;79.00;;;;;;4985330;28;19937;-79
2023/07/25 12:15:18;;;;;;;;;;;20.10;79.10;;;;;;4987157;28;19941;-79
2023/07/25 12:17:46;;;;;;;;;;;20.10;79.10;;;;;;5005839;28;19929;-80
2023/07/25 12:20:14;;;;;;;;;;;20.10;79.10;;;;;;5006937;28;19936;-80
2023/07/25 12:22:40;;;;;;;;;;;20.20;79.20;;;;;;4998928;28;19951;-79
2023/07/25 12:25:07;;;;;;;;;;;20.20;79.10;;;;;;5001352;28;19937;-80
2023/07/25 12:27:34;;;;;;;;;;;20.20;79.10;;;;;;4999373;28;19940;-81
2023/07/25 12:30:00;;;;;;;;;;;20.20;79.30;;;;;;5001815;28;19925;-80
2023/07/25 12:32:27;;;;;;;;;;;20.20;79.60;;;;;;4999976;28;19929;-77
2023/07/25 12:35:01;;;;;;;;;;;20.30;79.80;;;;;;5003390;28;20373;-80
2023/07/25 12:37:28;;;;;;;;;;;20.30;79.70;;;;;;5002242;28;20020;-79
2023/07/25 12:39:54;;;;;;;;;;;20.30;79.70;;;;;;5004693;28;19935;-79
2023/07/25 12:42:21;;;;;;;;;;;20.30;79.70;;;;;;5004164;28;19929;-80
2023/07/25 12:44:47;;;;;;;;;;;20.30;79.40;;;;;;5001890;28;19968;-80
2023/07/25 12:47:14;;;;;;;;;;;20.40;79.10;;;;;;5005767;28;20325;-79
2023/07/25 12:49:40;;;;;;;;;;;20.30;78.90;;;;;;5007092;28;19937;-79
2023/07/25 12:52:08;;;;;;;;;;;20.40;78.80;;;;;;5005704;28;20399;-79
2023/07/25 12:54:35;;;;;;;;;;;20.40;78.60;;;;;;5004931;28;20303;-79
2023/07/25 12:57:02;;;;;;;;;;;20.40;78.40;;;;;;5006599;28;19929;-79
2023/07/25 12:59:29;;;;;;;;;;;20.40;78.40;;;;;;5005469;28;20561;-79
2023/07/25 13:01:55;;;;;;;;;;;20.40;78.50;;;;;;5002067;28;20514;-79
2023/07/25 13:04:22;;;;;;;;;;;20.40;78.60;;;;;;5005461;28;19936;-78
2023/07/25 13:06:48;;;;;;;;;;;20.40;78.60;;;;;;5005613;28;19941;-79
2023/07/25 13:09:16;;;;;;;;;;;20.40;78.50;;;;;;4999850;28;19929;-78
2023/07/25 13:11:43;;;;;;;;;;;20.40;78.20;;;;;;5004277;28;19929;-80
2023/07/25 13:14:09;;;;;;;;;;;20.40;78.10;;;;;;5010517;28;19930;-78
2023/07/25 13:16:36;;;;;;;;;;;20.40;78.00;;;;;;5006047;28;19937;-78
2023/07/25 13:19:02;;;;;;;;;;;20.50;78.00;;;;;;5007752;28;19936;-79
2023/07/25 13:21:29;;;;;;;;;;;20.50;78.20;;;;;;5005280;28;19936;-79
2023/07/25 13:23:55;;;;;;;;;;;20.50;78.00;;;;;;5004419;28;20421;-79
2023/07/25 13:26:23;;;;;;;;;;;20.50;77.70;;;;;;5002399;28;20387;-78
2023/07/25 13:28:50;;;;;;;;;;;20.60;77.40;;;;;;5002099;28;20411;-78
2023/07/25 13:31:16;;;;;;;;;;;20.60;77.10;;;;;;4993537;28;20419;-78
2023/07/25 13:33:43;;;;;;;;;;;20.60;76.80;;;;;;4984701;28;19933;-79
2023/07/25 13:36:09;;;;;;;;;;;20.70;76.90;;;;;;4981010;28;20442;-77
2023/07/25 13:38:36;;;;;;;;;;;20.70;76.80;;;;;;4985046;28;19980;-76
2023/07/25 13:41:02;;;;;;;;;;;20.70;76.70;;;;;;4983906;28;19936;-78
2023/07/25 13:43:30;;;;;;;;;;;20.70;76.60;;;;;;4984468;28;20020;-78
2023/07/25 13:45:57;;;;;;;;;;;20.70;76.60;;;;;;4991694;28;19937;-78
2023/07/25 13:48:24;;;;;;;;;;;20.70;76.50;;;;;;4996073;28;19929;-77
2023/07/25 13:50:50;;;;;;;;;;;20.70;76.30;;;;;;5004274;28;19929;-76
2023/07/25 13:53:17;;;;;;;;;;;20.70;76.40;;;;;;5002827;28;20029;-76
2023/07/25 13:55:43;;;;;;;;;;;20.70;76.20;;;;;;5007113;28;19929;-77
2023/07/25 13:58:10;;;;;;;;;;;20.80;76.20;;;;;;5003046;28;20315;-76
2023/07/25 14:00:38;;;;;;;;;;;20.80;76.10;;;;;;5000661;28;20281;-76
2023/07/25 14:03:05;;;;;;;;;;;20.80;76.00;;;;;;4989960;28;20285;-75
2023/07/25 14:05:32;;;;;;;;;;;20.80;75.80;;;;;;4995205;28;19926;-75
2023/07/25 14:07:58;;;;;;;;;;;20.80;76.30;;;;;;4988818;28;20331;-76
2023/07/25 14:10:25;;;;;;;;;;;20.80;76.30;;;;;;4998659;28;19937;-75
2023/07/25 14:12:52;;;;;;;;;;;20.80;76.40;;;;;;4996959;28;19933;-75
2023/07/25 14:15:18;;;;;;;;;;;20.80;76.10;;;;;;4994400;28;21026;-75